createdAt,value
2022-09-06T00:39:43.229Z,9.711682
2022-09-06T00:40:43.173Z,9.711731
2022-09-06T00:41:43.183Z,9.711808
2022-09-06T00:42:43.150Z,9.711811
2022-09-06T00:43:43.164Z,9.711782
2022-09-06T00:44:43.145Z,9.711599
2022-09-06T00:45:43.170Z,9.711537
2022-09-06T00:46:43.183Z,9.711540
2022-09-06T00:47:43.112Z,9.711894
2022-09-06T00:48:43.109Z,9.711961
2022-09-06T00:49:43.105Z,9.712037
2022-09-06T00:50:43.121Z,9.711999
2022-09-06T00:51:43.085Z,9.711892
2022-09-06T00:52:43.074Z,9.711782
2022-09-06T00:53:43.066Z,9.711587
2022-09-06T00:54:44.064Z,9.711527
2022-09-06T00:55:43.060Z,9.711466
2022-09-06T00:56:43.052Z,9.711570
2022-09-06T00:57:43.047Z,9.711672
2022-09-06T00:58:43.039Z,9.711884
2022-09-06T00:59:43.042Z,9.711673
2022-09-06T01:00:43.011Z,9.711651
2022-09-06T01:01:43.177Z,9.711424
2022-09-06T01:02:43.141Z,9.711543
2022-09-06T01:03:42.994Z,9.711661
2022-09-06T01:04:42.987Z,9.711704
2022-09-06T01:05:42.981Z,9.711565
2022-09-06T01:06:42.981Z,9.711663
2022-09-06T01:07:42.977Z,9.711680
2022-09-06T01:08:42.962Z,9.711663
2022-09-06T01:09:42.953Z,9.711557
2022-09-06T01:10:42.943Z,9.711637
2022-09-06T01:11:42.933Z,9.711685
2022-09-06T01:12:42.933Z,9.711728
2022-09-06T01:13:42.913Z,9.711808
2022-09-06T01:14:42.914Z,9.711609
2022-09-06T01:15:42.921Z,9.711566
2022-09-06T01:16:42.882Z,9.711637
2022-09-06T01:17:42.890Z,9.711652
2022-09-06T01:18:42.897Z,9.711608
2022-09-06T01:19:42.866Z,9.711648
2022-09-06T01:20:42.876Z,9.712341
2022-09-06T01:21:42.854Z,9.712671
2022-09-06T01:22:42.848Z,9.712744
2022-09-06T01:23:42.838Z,9.713127
2022-09-06T01:24:42.837Z,9.712827
2022-09-06T01:25:42.831Z,9.712195
2022-09-06T01:26:42.821Z,9.712400
2022-09-06T01:27:42.803Z,9.712256
2022-09-06T01:28:42.795Z,9.712028
2022-09-06T01:29:42.787Z,9.711871
2022-09-06T01:30:42.818Z,9.711825
2022-09-06T01:31:42.774Z,9.711434
2022-09-06T01:32:42.769Z,9.711617
2022-09-06T01:33:42.759Z,9.711471
2022-09-06T01:34:42.759Z,9.711376
2022-09-06T01:35:42.751Z,9.711327
2022-09-06T01:37:06.380Z,9.711689
2022-09-06T01:37:44.762Z,9.711825
2022-09-06T01:38:42.728Z,9.711881
2022-09-06T01:39:42.744Z,9.711864
2022-09-06T01:40:42.717Z,9.711592
2022-09-06T01:41:42.701Z,9.711611
2022-09-06T01:42:42.693Z,9.711512
2022-09-06T01:43:42.697Z,9.711440
2022-09-06T01:44:42.671Z,9.711382
2022-09-06T01:45:42.730Z,9.711476
2022-09-06T01:46:42.657Z,9.711447
2022-09-06T01:47:42.650Z,9.711516
2022-09-06T01:48:42.714Z,9.711390
2022-09-06T01:49:42.636Z,9.711515
2022-09-06T01:50:42.637Z,9.711381
2022-09-06T01:51:42.598Z,9.711526
2022-09-06T01:52:43.615Z,9.711806
2022-09-06T01:53:42.596Z,9.711651
2022-09-06T01:54:42.595Z,9.711677
2022-09-06T01:55:42.584Z,9.711770
2022-09-06T01:56:42.577Z,9.711720
2022-09-06T01:57:42.578Z,9.711760
2022-09-06T01:58:42.555Z,9.711732
2022-09-06T01:59:42.547Z,9.711699
2022-09-06T02:00:42.544Z,9.711685
2022-09-06T02:01:42.672Z,9.711686
2022-09-06T02:02:42.635Z,9.711679
2022-09-06T02:03:42.513Z,9.711685
2022-09-06T02:04:42.518Z,9.711670
2022-09-06T02:05:42.594Z,9.711656
2022-09-06T02:06:42.502Z,9.711722
2022-09-06T02:07:42.490Z,9.711684
2022-09-06T02:08:42.480Z,9.711703
2022-09-06T02:09:42.461Z,9.711686
2022-09-06T02:10:42.471Z,9.711622
2022-09-06T02:11:42.457Z,9.711686
2022-09-06T02:12:42.452Z,9.711657
2022-09-06T02:13:42.440Z,9.711631
2022-09-06T02:14:42.442Z,9.711661
2022-09-06T02:15:42.433Z,9.711636
2022-09-06T02:16:42.463Z,9.711637
2022-09-06T02:17:42.405Z,9.711703
2022-09-06T02:18:42.407Z,9.711673
2022-09-06T02:19:42.400Z,9.711687
2022-09-06T02:20:42.382Z,9.711686
2022-09-06T02:21:42.390Z,9.711671
2022-09-06T02:22:42.372Z,9.711676
2022-09-06T02:23:42.365Z,9.711707
2022-09-06T02:24:42.412Z,9.711647
2022-09-06T02:25:43.351Z,9.711721
2022-09-06T02:26:42.338Z,9.711758
2022-09-06T02:27:42.327Z,9.711663
2022-09-06T02:28:42.325Z,9.711647
2022-09-06T02:29:42.313Z,9.711649
2022-09-06T02:30:42.362Z,9.711636
2022-09-06T02:31:42.306Z,9.711623
2022-09-06T02:32:42.298Z,9.711582
2022-09-06T02:33:42.279Z,9.711565
2022-09-06T02:34:42.272Z,9.711576
2022-09-06T02:35:42.267Z,9.711531
2022-09-06T02:36:42.275Z,9.711577
2022-09-06T02:37:42.254Z,9.711507
2022-09-06T02:38:42.239Z,9.711531
2022-09-06T02:39:42.251Z,9.711532
2022-09-06T02:40:42.224Z,9.711555
2022-09-06T02:41:42.232Z,9.711585
2022-09-06T02:42:42.226Z,9.711576
2022-09-06T02:43:42.201Z,9.711631
2022-09-06T02:44:42.194Z,9.711594
2022-09-06T02:45:42.208Z,9.711689
2022-09-06T02:46:42.179Z,9.711625
2022-09-06T02:47:42.177Z,9.711493
2022-09-06T02:48:42.160Z,9.711453
2022-09-06T02:49:42.152Z,9.711526
2022-09-06T02:50:42.160Z,9.711549
2022-09-06T02:51:42.138Z,9.711553
2022-09-06T02:52:42.141Z,9.711532
2022-09-06T02:53:42.131Z,9.711514
2022-09-06T02:54:42.117Z,9.711529
2022-09-06T02:55:42.104Z,9.711532
2022-09-06T02:56:42.096Z,9.711509
2022-09-06T02:57:42.083Z,9.711549
2022-09-06T02:58:42.088Z,9.711514
2022-09-06T02:59:42.126Z,9.711555
2022-09-06T03:00:42.064Z,9.711494
2022-09-06T03:01:42.118Z,9.711481
2022-09-06T03:02:42.124Z,9.711525
2022-09-06T03:03:42.046Z,9.711569
2022-09-06T03:04:42.039Z,9.711570
2022-09-06T03:05:42.022Z,9.711588
2022-09-06T03:06:42.019Z,9.711584
2022-09-06T03:07:42.003Z,9.711550
2022-09-06T03:08:42.024Z,9.711611
2022-09-06T03:09:41.989Z,9.711637
2022-09-06T03:10:41.983Z,9.711628
2022-09-06T03:11:41.981Z,9.711600
2022-09-06T03:12:41.982Z,9.711676
2022-09-06T03:13:41.968Z,9.711774
2022-09-06T03:14:42.646Z,9.711707
2022-09-06T03:15:41.946Z,9.711711
2022-09-06T03:16:42.021Z,9.711695
2022-09-06T03:17:41.932Z,9.711741
2022-09-06T03:18:41.930Z,9.711638
2022-09-06T03:19:41.918Z,9.711550
2022-09-06T03:20:41.916Z,9.711574
2022-09-06T03:21:41.898Z,9.711740
2022-09-06T03:22:41.890Z,9.711783
2022-09-06T03:23:41.882Z,9.711565
2022-09-06T03:24:41.883Z,9.711783
2022-09-06T03:25:41.878Z,9.711746
2022-09-06T03:26:41.869Z,9.711819
2022-09-06T03:27:41.863Z,9.711782
2022-09-06T03:28:41.841Z,9.711566
2022-09-06T03:29:41.845Z,9.711804
2022-09-06T03:30:41.900Z,9.711627
2022-09-06T03:31:41.820Z,9.711474
2022-09-06T03:32:41.806Z,9.711514
2022-09-06T03:33:41.800Z,9.711551
2022-09-06T03:34:41.805Z,9.711582
2022-09-06T03:35:41.801Z,9.711642
2022-09-06T03:36:41.779Z,9.711671
2022-09-06T03:37:41.809Z,9.711963
2022-09-06T03:38:41.759Z,9.712792
2022-09-06T03:39:41.877Z,9.713167
2022-09-06T03:40:41.749Z,9.712866
2022-09-06T03:41:41.731Z,9.712584
2022-09-06T03:42:41.733Z,9.712152
2022-09-06T03:43:41.721Z,9.711971
2022-09-06T03:44:41.725Z,9.711881
2022-09-06T03:45:41.740Z,9.711612
2022-09-06T03:46:41.697Z,9.711690
2022-09-06T03:47:41.690Z,9.711610
2022-09-06T03:48:41.681Z,9.711688
2022-09-06T03:49:41.676Z,9.711754
2022-09-06T03:50:41.665Z,9.711537
2022-09-06T03:51:41.659Z,9.711275
2022-09-06T03:52:41.646Z,9.711452
2022-09-06T03:53:42.149Z,9.711823
2022-09-06T03:54:41.636Z,9.711967
2022-09-06T03:55:41.626Z,9.712317
2022-09-06T03:56:41.628Z,9.711899
2022-09-06T03:57:41.610Z,9.712091
2022-09-06T03:58:41.602Z,9.711677
2022-09-06T03:59:41.588Z,9.711594
2022-09-06T04:00:41.587Z,9.711791
2022-09-06T04:01:41.606Z,9.711777
2022-09-06T04:02:41.655Z,9.711940
2022-09-06T04:03:41.563Z,9.711824
2022-09-06T04:04:41.555Z,9.711960
2022-09-06T04:05:41.551Z,9.712114
2022-09-06T04:06:41.547Z,9.711746
2022-09-06T04:07:41.538Z,9.711536
2022-09-06T04:08:41.534Z,9.711466
2022-09-06T04:09:41.514Z,9.711407
2022-09-06T04:10:41.506Z,9.711604
2022-09-06T04:11:43.861Z,9.711640
2022-09-06T04:12:42.491Z,9.711704
2022-09-06T04:13:41.498Z,9.711653
2022-09-06T04:14:41.471Z,9.711510
2022-09-06T04:15:42.468Z,9.711506
2022-09-06T04:16:41.540Z,9.711540
2022-09-06T04:17:41.458Z,9.711614
2022-09-06T04:18:41.446Z,9.711617
2022-09-06T04:19:41.443Z,9.711637
2022-09-06T04:20:41.430Z,9.711638
2022-09-06T04:21:41.429Z,9.711613
2022-09-06T04:22:41.413Z,9.711623
2022-09-06T04:23:41.414Z,9.711617
2022-09-06T04:24:41.414Z,9.711638
2022-09-06T04:25:41.392Z,9.711637
2022-09-06T04:26:41.385Z,9.711620
2022-09-06T04:27:41.377Z,9.711697
2022-09-06T04:28:41.373Z,9.711774
2022-09-06T04:29:41.393Z,9.711745
2022-09-06T04:30:41.359Z,9.711726
2022-09-06T04:31:41.378Z,9.711722
2022-09-06T04:32:41.374Z,9.711790
2022-09-06T04:33:41.341Z,9.711820
2022-09-06T04:34:41.332Z,9.711915
2022-09-06T04:35:41.331Z,9.711802
2022-09-06T04:36:43.612Z,9.711546
2022-09-06T04:37:41.306Z,9.711663
2022-09-06T04:38:41.303Z,9.711778
2022-09-06T04:39:41.339Z,9.711659
2022-09-06T04:40:41.287Z,9.711790
2022-09-06T04:41:41.307Z,9.711775
2022-09-06T04:42:41.288Z,9.711771
2022-09-06T04:43:41.258Z,9.711549
2022-09-06T04:44:41.248Z,9.711582
2022-09-06T04:45:41.310Z,9.711527
2022-09-06T04:46:41.226Z,9.711811
2022-09-06T04:47:41.228Z,9.711714
2022-09-06T04:48:41.277Z,9.711780
2022-09-06T04:49:41.228Z,9.711939
2022-09-06T04:50:41.205Z,9.711944
2022-09-06T04:51:41.191Z,9.711819
2022-09-06T04:52:41.179Z,9.711693
2022-09-06T04:53:41.169Z,9.711698
2022-09-06T04:54:41.179Z,9.711664
2022-09-06T04:55:41.150Z,9.711562
2022-09-06T04:56:42.172Z,9.711479
2022-09-06T04:57:45.756Z,9.711740
2022-09-06T04:58:43.129Z,9.711779
2022-09-06T04:59:41.678Z,9.711686
2022-09-06T05:00:41.159Z,9.711632
2022-09-06T05:01:41.107Z,9.711688
2022-09-06T05:02:41.174Z,9.711578
2022-09-06T05:03:41.097Z,9.711585
2022-09-06T05:04:41.108Z,9.711556
2022-09-06T05:05:41.072Z,9.711548
2022-09-06T05:06:41.065Z,9.711579
2022-09-06T05:07:41.063Z,9.711593
2022-09-06T05:08:41.052Z,9.711660
2022-09-06T05:09:41.039Z,9.711662
2022-09-06T05:10:41.050Z,9.711626
2022-09-06T05:11:41.033Z,9.711637
2022-09-06T05:12:44.288Z,9.711686
2022-09-06T05:13:42.010Z,9.711687
2022-09-06T05:14:41.003Z,9.711659
2022-09-06T05:15:40.995Z,9.711655
2022-09-06T05:16:41.046Z,9.711548
2022-09-06T05:17:41.000Z,9.711658
2022-09-06T05:18:40.972Z,9.711701
2022-09-06T05:19:40.961Z,9.711708
2022-09-06T05:20:41.964Z,9.711678
2022-09-06T05:21:40.983Z,9.711675
2022-09-06T05:22:40.946Z,9.711711
2022-09-06T05:23:40.939Z,9.711628
2022-09-06T05:24:40.927Z,9.711657
2022-09-06T05:25:40.939Z,9.711641
2022-09-06T05:26:40.905Z,9.711605
2022-09-06T05:27:40.895Z,9.711673
2022-09-06T05:28:40.893Z,9.711663
2022-09-06T05:29:40.890Z,9.711684
2022-09-06T05:30:40.885Z,9.711585
2022-09-06T05:31:40.939Z,9.711594
2022-09-06T05:32:40.855Z,9.711569
2022-09-06T05:33:40.845Z,9.711659
2022-09-06T05:34:41.846Z,9.711681
2022-09-06T05:35:40.834Z,9.711636
2022-09-06T05:36:40.853Z,9.711631
2022-09-06T05:37:40.827Z,9.711570
2022-09-06T05:38:40.830Z,9.711606
2022-09-06T05:39:40.840Z,9.711598
2022-09-06T05:40:40.805Z,9.711602
2022-09-06T05:41:40.786Z,9.711725
2022-09-06T05:42:40.816Z,9.711631
2022-09-06T05:43:40.769Z,9.711694
2022-09-06T05:44:40.777Z,9.711512
2022-09-06T05:45:40.796Z,9.711727
2022-09-06T05:46:40.754Z,9.711855
2022-09-06T05:47:40.751Z,9.711914
2022-09-06T05:48:41.208Z,9.711818
2022-09-06T05:49:40.728Z,9.711739
2022-09-06T05:50:40.721Z,9.711901
2022-09-06T05:51:40.731Z,9.711745
2022-09-06T05:52:40.705Z,9.711714
2022-09-06T05:53:40.698Z,9.711656
2022-09-06T05:54:40.687Z,9.711663
2022-09-06T05:55:43.031Z,9.711594
2022-09-06T05:56:42.626Z,9.711743
2022-09-06T05:57:40.708Z,9.711729
2022-09-06T05:58:40.657Z,9.711637
2022-09-06T05:59:40.643Z,9.711530
2022-09-06T06:00:40.673Z,9.711490
2022-09-06T06:01:40.742Z,9.711479
2022-09-06T06:02:41.645Z,9.711453
2022-09-06T06:03:40.616Z,9.711415
2022-09-06T06:04:40.601Z,9.711569
2022-09-06T06:05:40.643Z,9.711413
2022-09-06T06:06:40.586Z,9.711077
2022-09-06T06:07:40.614Z,9.711294
2022-09-06T06:08:40.578Z,9.711260
2022-09-06T06:09:40.569Z,9.711281
2022-09-06T06:10:40.577Z,9.710982
2022-09-06T06:11:40.553Z,9.711169
2022-09-06T06:12:40.553Z,9.711259
2022-09-06T06:13:40.531Z,9.711325
2022-09-06T06:14:40.522Z,9.711606
2022-09-06T06:15:41.525Z,9.711659
2022-09-06T06:16:40.596Z,9.711598
2022-09-06T06:17:40.511Z,9.711509
2022-09-06T06:18:40.499Z,9.711474
2022-09-06T06:19:40.488Z,9.711654
2022-09-06T06:20:40.515Z,9.711599
2022-09-06T06:21:40.475Z,9.711349
2022-09-06T06:22:40.465Z,9.711349
2022-09-06T06:23:40.466Z,9.711301
2022-09-06T06:24:40.458Z,9.711439
2022-09-06T06:25:40.442Z,9.711460
2022-09-06T06:26:40.432Z,9.711485
2022-09-06T06:27:40.422Z,9.711085
2022-09-06T06:28:40.419Z,9.711552
2022-09-06T06:29:40.415Z,9.711623
2022-09-06T06:30:40.411Z,9.711704
2022-09-06T06:31:40.427Z,9.711652
2022-09-06T06:32:40.415Z,9.711636
2022-09-06T06:33:40.380Z,9.711648
2022-09-06T06:34:40.388Z,9.711641
2022-09-06T06:35:40.363Z,9.711625
2022-09-06T06:36:40.371Z,9.711656
2022-09-06T06:37:41.244Z,9.711636
2022-09-06T06:38:40.336Z,9.711666
2022-09-06T06:39:40.382Z,9.711663
2022-09-06T06:40:40.322Z,9.711625
2022-09-06T06:41:40.334Z,9.711661
2022-09-06T06:42:40.310Z,9.711670
2022-09-06T06:43:40.303Z,9.711621
2022-09-06T06:44:40.294Z,9.711666
2022-09-06T06:45:40.326Z,9.711679
2022-09-06T06:46:40.311Z,9.711686
2022-09-06T06:47:40.271Z,9.711656
2022-09-06T06:48:40.261Z,9.711653
2022-09-06T06:49:40.245Z,9.711686
2022-09-06T06:50:41.260Z,9.711660
2022-09-06T06:51:40.234Z,9.711701
2022-09-06T06:52:40.234Z,9.711577
2022-09-06T06:53:41.209Z,9.711572
2022-09-06T06:54:40.258Z,9.711713
2022-09-06T06:55:40.203Z,9.711644
2022-09-06T06:56:40.213Z,9.711637
2022-09-06T06:57:42.140Z,9.711615
2022-09-06T06:58:40.181Z,9.712381
2022-09-06T06:59:40.226Z,9.712210
2022-09-06T07:00:40.203Z,9.712378
2022-09-06T07:01:40.380Z,9.712521
2022-09-06T07:02:40.151Z,9.712709
2022-09-06T07:03:40.175Z,9.711884
2022-09-06T07:04:40.173Z,9.712265
2022-09-06T07:07:42.111Z,9.712259
2022-09-06T07:08:40.673Z,9.711926
2022-09-06T07:10:42.098Z,9.711963
2022-09-06T07:11:40.082Z,9.711813
2022-09-06T07:12:40.100Z,9.711923
2022-09-06T07:13:40.067Z,9.711894
2022-09-06T07:14:40.053Z,9.711703
2022-09-06T07:15:40.063Z,9.711703
2022-09-06T07:16:40.092Z,9.711866
2022-09-06T07:17:40.034Z,9.711885
2022-09-06T07:18:41.725Z,9.711621
2022-09-06T07:21:42.015Z,9.711550
2022-09-06T07:22:40.018Z,9.711504
2022-09-06T07:24:10.141Z,9.711697
2022-09-06T07:24:42.020Z,9.711698
2022-09-06T07:25:39.971Z,9.711598
2022-09-06T07:26:40.647Z,9.711587
2022-09-06T07:27:48.073Z,9.711615
2022-09-06T07:28:41.954Z,9.711686
2022-09-06T07:29:39.947Z,9.711660
2022-09-06T07:30:39.948Z,9.711617
2022-09-06T07:32:41.920Z,9.711566
2022-09-06T07:33:39.908Z,9.711503
2022-09-06T07:34:39.898Z,9.711519
2022-09-06T07:35:40.720Z,9.711654
2022-09-06T07:36:39.896Z,9.711677
2022-09-06T07:37:39.882Z,9.711645
2022-09-06T07:38:39.878Z,9.711678
2022-09-06T07:39:39.920Z,9.711659
2022-09-06T07:40:39.852Z,9.711653
2022-09-06T07:41:39.866Z,9.711696
2022-09-06T07:42:39.844Z,9.711724
2022-09-06T07:43:39.837Z,9.711646
2022-09-06T07:44:40.651Z,9.711715
2022-09-06T07:45:39.815Z,9.711740
2022-09-06T07:46:39.906Z,9.711763
2022-09-06T07:48:41.820Z,9.711772
2022-09-06T07:49:40.210Z,9.711831
2022-09-06T07:50:48.445Z,9.711755
2022-09-06T07:51:41.781Z,9.711733
2022-09-06T07:53:41.776Z,9.711764
2022-09-06T07:54:39.754Z,9.711751
2022-09-06T07:55:39.735Z,9.711797
2022-09-06T07:56:39.731Z,9.711768
2022-09-06T07:57:39.728Z,9.711732
2022-09-06T07:58:39.717Z,9.711786
2022-09-06T07:59:42.877Z,9.711792
2022-09-06T08:00:40.730Z,9.711698
2022-09-06T08:01:39.771Z,9.711628
2022-09-06T08:02:39.708Z,9.711757
2022-09-06T08:03:39.687Z,9.711724
2022-09-06T08:04:39.670Z,9.711796
2022-09-06T08:07:41.667Z,9.711624
2022-09-06T08:09:09.590Z,9.711575
2022-09-06T08:09:41.629Z,9.711650
2022-09-06T08:10:39.620Z,9.711667
2022-09-06T08:11:39.755Z,9.711678
2022-09-06T08:12:39.611Z,9.711756
2022-09-06T08:13:39.606Z,9.711793
2022-09-06T08:14:39.601Z,9.711830
2022-09-06T08:15:41.645Z,9.711708
2022-09-06T08:16:40.674Z,9.711652
2022-09-06T08:17:39.576Z,9.711753
2022-09-06T08:18:39.561Z,9.711750
2022-09-06T08:19:39.576Z,9.711602
2022-09-06T08:20:39.609Z,9.711667
2022-09-06T08:21:39.549Z,9.711720
2022-09-06T08:22:39.544Z,9.711722
2022-09-06T08:23:39.528Z,9.711624
2022-09-06T08:24:39.527Z,9.711680
2022-09-06T08:25:39.513Z,9.711677
2022-09-06T08:26:39.523Z,9.711728
2022-09-06T08:27:39.493Z,9.711716
2022-09-06T08:28:39.493Z,9.711741
2022-09-06T08:29:39.486Z,9.711717
2022-09-06T08:30:39.485Z,9.711679
2022-09-06T08:31:39.531Z,9.711743
2022-09-06T08:32:39.468Z,9.711704
2022-09-06T08:33:39.451Z,9.711706
2022-09-06T08:34:39.438Z,9.711736
2022-09-06T08:35:39.433Z,9.711728
2022-09-06T08:36:39.439Z,9.711664
2022-09-06T08:37:39.414Z,9.711696
2022-09-06T08:38:39.412Z,9.711631
2022-09-06T08:39:41.233Z,9.711499
2022-09-06T08:40:39.395Z,9.711676
2022-09-06T08:41:39.415Z,9.711679
2022-09-06T08:42:40.201Z,9.711697
2022-09-06T08:43:39.389Z,9.711753
2022-09-06T08:45:41.381Z,9.711695
2022-09-06T08:46:39.507Z,9.711700
2022-09-06T08:47:39.344Z,9.711665
2022-09-06T08:48:40.173Z,9.711671
2022-09-06T08:49:39.322Z,9.711674
2022-09-06T08:50:39.311Z,9.711669
2022-09-06T08:51:39.304Z,9.711699
2022-09-06T08:52:45.377Z,9.711691
2022-09-06T08:53:41.337Z,9.711662
2022-09-06T08:54:39.287Z,9.711669
2022-09-06T08:55:40.245Z,9.711669
2022-09-06T08:56:40.275Z,9.711669
2022-09-06T08:57:40.376Z,9.711610
2022-09-06T08:58:40.281Z,9.711703
2022-09-06T08:59:39.257Z,9.711621
2022-09-06T09:00:39.274Z,9.711603
2022-09-06T09:01:39.304Z,9.711730
2022-09-06T09:02:39.226Z,9.711703
2022-09-06T09:03:39.220Z,9.711762
2022-09-06T09:04:39.221Z,9.711827
2022-09-06T09:05:39.198Z,9.711706
2022-09-06T09:06:39.200Z,9.711637
2022-09-06T09:07:39.683Z,9.711709
2022-09-06T09:08:39.176Z,9.711797
2022-09-06T09:09:39.167Z,9.711807
2022-09-06T09:10:39.162Z,9.711595
2022-09-06T09:11:39.151Z,9.711800
2022-09-06T09:12:39.194Z,9.711571
2022-09-06T09:13:39.138Z,9.711904
2022-09-06T09:14:39.141Z,9.711797
2022-09-06T09:15:40.507Z,9.711792
2022-09-06T09:16:40.157Z,9.711721
2022-09-06T09:17:39.105Z,9.711744
2022-09-06T09:18:39.379Z,9.711645
2022-09-06T09:19:39.094Z,9.711703
2022-09-06T09:20:39.078Z,9.711696
2022-09-06T09:21:39.098Z,9.711684
2022-09-06T09:22:39.063Z,9.711624
2022-09-06T09:23:39.063Z,9.711637
2022-09-06T09:24:39.050Z,9.711773
2022-09-06T09:25:39.048Z,9.711773
2022-09-06T09:26:39.036Z,9.711768
2022-09-06T09:27:39.029Z,9.711801
2022-09-06T09:28:39.038Z,9.711720
2022-09-06T09:29:39.260Z,9.711579
2022-09-06T09:31:41.046Z,9.711636
2022-09-06T09:32:39.015Z,9.711660
2022-09-06T09:33:39.000Z,9.711892
2022-09-06T09:34:38.978Z,9.711884
2022-09-06T09:35:38.982Z,9.711777
2022-09-06T09:36:38.961Z,9.711962
2022-09-06T09:37:46.815Z,9.711742
2022-09-06T09:38:40.948Z,9.711881
2022-09-06T09:39:39.029Z,9.711831
2022-09-06T09:40:38.945Z,9.711935
2022-09-06T09:41:39.049Z,9.711813
2022-09-06T09:42:39.054Z,9.711828
2022-09-06T09:43:38.910Z,9.711593
2022-09-06T09:44:38.896Z,9.711541
2022-09-06T09:45:38.899Z,9.712027
2022-09-06T09:46:38.946Z,9.712194
2022-09-06T09:47:38.886Z,9.712102
2022-09-06T09:48:38.872Z,9.712036
2022-09-06T09:49:38.863Z,9.712147
2022-09-06T09:50:38.857Z,9.712036
2022-09-06T09:51:38.856Z,9.711831
2022-09-06T09:52:38.842Z,9.711692
2022-09-06T09:53:38.850Z,9.711590
2022-09-06T09:54:38.822Z,9.711677
2022-09-06T09:55:38.818Z,9.711704
2022-09-06T09:56:38.830Z,9.711736
2022-09-06T09:57:38.823Z,9.711735
2022-09-06T09:58:38.787Z,9.711788
2022-09-06T09:59:38.807Z,9.711799
2022-09-06T10:00:38.828Z,9.711754
2022-09-06T10:01:38.767Z,9.711794
2022-09-06T10:02:38.765Z,9.711809
2022-09-06T10:05:39.743Z,9.711699
2022-09-06T10:07:40.726Z,9.711788
2022-09-06T10:08:38.782Z,9.711738
2022-09-06T10:09:38.740Z,9.711639
2022-09-06T10:10:39.299Z,9.711679
2022-09-06T10:11:38.695Z,9.711559
2022-09-06T10:12:38.677Z,9.711482
2022-09-06T10:13:39.692Z,9.711643
2022-09-06T10:14:38.661Z,9.711879
2022-09-06T10:15:38.670Z,9.711771
2022-09-06T10:16:38.651Z,9.711802
2022-09-06T10:17:38.634Z,9.711842
2022-09-06T10:18:38.627Z,9.711718
2022-09-06T10:19:38.635Z,9.711754
2022-09-06T10:20:38.625Z,9.711772
2022-09-06T10:21:38.609Z,9.711733
2022-09-06T10:22:38.606Z,9.711762
2022-09-06T10:24:40.591Z,9.711746
2022-09-06T10:25:38.575Z,9.711733
2022-09-06T10:26:38.596Z,9.711679
2022-09-06T10:27:45.715Z,9.711726
2022-09-06T10:28:40.566Z,9.711742
2022-09-06T10:29:38.554Z,9.711769
2022-09-06T10:30:38.539Z,9.711735
2022-09-06T10:31:38.619Z,9.711796
2022-09-06T10:32:38.544Z,9.711726
2022-09-06T10:33:38.559Z,9.711755
2022-09-06T10:34:38.504Z,9.711951
2022-09-06T10:35:38.510Z,9.711655
2022-09-06T10:36:38.488Z,9.711853
2022-09-06T10:37:38.484Z,9.711734
2022-09-06T10:38:38.499Z,9.711860
2022-09-06T10:39:38.546Z,9.711808
2022-09-06T10:40:38.543Z,9.711740
2022-09-06T10:41:38.453Z,9.711701
2022-09-06T10:42:38.479Z,9.711741
2022-09-06T10:43:38.516Z,9.711626
2022-09-06T10:44:38.438Z,9.712048
2022-09-06T10:45:38.430Z,9.711780
2022-09-06T10:46:38.488Z,9.711726
2022-09-06T10:47:38.433Z,9.711887
2022-09-06T10:48:38.404Z,9.711599
2022-09-06T10:49:38.410Z,9.711900
2022-09-06T10:50:38.831Z,9.712117
2022-09-06T10:51:38.398Z,9.712070
2022-09-06T10:52:38.399Z,9.711911
2022-09-06T10:53:38.364Z,9.711818
2022-09-06T10:54:38.357Z,9.711883
2022-09-06T10:55:39.303Z,9.711858
2022-09-06T10:56:38.339Z,9.711858
2022-09-06T10:59:40.323Z,9.712000
2022-09-06T11:00:38.298Z,9.711914
2022-09-06T11:01:40.925Z,9.711921
2022-09-06T11:02:38.424Z,9.712035
2022-09-06T11:03:53.728Z,9.712151
2022-09-06T11:05:40.402Z,9.711920
2022-09-06T11:06:38.265Z,9.711802
2022-09-06T11:07:38.443Z,9.711827
2022-09-06T11:10:05.785Z,9.712137
2022-09-06T11:10:38.240Z,9.712096
2022-09-06T11:11:39.769Z,9.712046
2022-09-06T11:12:38.233Z,9.712104
2022-09-06T11:13:40.851Z,9.712234
2022-09-06T11:14:38.214Z,9.712100
2022-09-06T11:15:38.270Z,9.712380
2022-09-06T11:16:38.191Z,9.712648
2022-09-06T11:17:38.179Z,9.712312
2022-09-06T11:18:38.170Z,9.712084
2022-09-06T11:19:38.161Z,9.711954
2022-09-06T11:20:38.773Z,9.711973
2022-09-06T11:21:38.160Z,9.712235
2022-09-06T11:22:38.137Z,9.712264
2022-09-06T11:23:38.139Z,9.712475
2022-09-06T11:24:38.132Z,9.712147
2022-09-06T11:25:38.142Z,9.712171
2022-09-06T11:26:38.121Z,9.711951
2022-09-06T11:27:38.120Z,9.711782
2022-09-06T11:28:38.106Z,9.711766
2022-09-06T11:29:38.087Z,9.711689
2022-09-06T11:30:38.099Z,9.711657
2022-09-06T11:32:40.077Z,9.711828
2022-09-06T11:33:38.059Z,9.712028
2022-09-06T11:34:38.062Z,9.711985
2022-09-06T11:35:38.046Z,9.711797
2022-09-06T11:36:38.073Z,9.711543
2022-09-06T11:37:38.033Z,9.711496
2022-09-06T11:38:38.028Z,9.711555
2022-09-06T11:40:39.008Z,9.711606
2022-09-06T11:41:38.026Z,9.711627
2022-09-06T11:42:38.877Z,9.711449
2022-09-06T11:43:37.976Z,9.711411
2022-09-06T11:44:37.978Z,9.711423
2022-09-06T11:45:38.010Z,9.711413
2022-09-06T11:46:38.075Z,9.711549
2022-09-06T11:47:37.953Z,9.711653
2022-09-06T11:48:37.939Z,9.711812
2022-09-06T11:49:37.940Z,9.712052
2022-09-06T11:50:37.937Z,9.711975
2022-09-06T11:51:37.917Z,9.711848
2022-09-06T11:52:37.915Z,9.711826
2022-09-06T11:53:37.913Z,9.711782
2022-09-06T11:54:37.900Z,9.711597
2022-09-06T11:55:37.893Z,9.711504
2022-09-06T11:56:37.937Z,9.711543
2022-09-06T11:57:37.879Z,9.711737
2022-09-06T11:58:37.906Z,9.711794
2022-09-06T11:59:37.860Z,9.711614
2022-09-06T12:00:37.859Z,9.711475
2022-09-06T12:01:37.845Z,9.711566
2022-09-06T12:02:38.032Z,9.711657
2022-09-06T12:04:39.845Z,9.711693
2022-09-06T12:05:37.860Z,9.711649
2022-09-06T12:06:38.387Z,9.711864
2022-09-06T12:07:37.896Z,9.711791
2022-09-06T12:08:37.792Z,9.711815
2022-09-06T12:09:38.389Z,9.711740
2022-09-06T12:10:37.816Z,9.711535
2022-09-06T12:11:37.766Z,9.711711
2022-09-06T12:12:37.819Z,9.711656
2022-09-06T12:13:37.755Z,9.711447
2022-09-06T12:14:37.750Z,9.711802
2022-09-06T12:15:37.791Z,9.711580
2022-09-06T12:16:38.766Z,9.711678
2022-09-06T12:17:37.723Z,9.711474
2022-09-06T12:18:37.759Z,9.711938
2022-09-06T12:19:42.105Z,9.711343
2022-09-06T12:20:39.702Z,9.711346
2022-09-06T12:21:37.689Z,9.711250
2022-09-06T12:22:37.695Z,9.711321
2022-09-06T12:23:37.667Z,9.711505
2022-09-06T12:24:39.381Z,9.711653
2022-09-06T12:25:37.687Z,9.711817
2022-09-06T12:26:37.650Z,9.711576
2022-09-06T12:27:37.642Z,9.711449
2022-09-06T12:28:37.627Z,9.711626
2022-09-06T12:29:37.620Z,9.711745
2022-09-06T12:30:37.649Z,9.711637
2022-09-06T12:31:37.757Z,9.711623
2022-09-06T12:32:37.599Z,9.711678
2022-09-06T12:33:37.684Z,9.711623
2022-09-06T12:34:37.586Z,9.711628
2022-09-06T12:36:39.575Z,9.711610
2022-09-06T12:37:37.576Z,9.711511
2022-09-06T12:38:37.575Z,9.711547
2022-09-06T12:39:37.576Z,9.711689
2022-09-06T12:40:37.534Z,9.711616
2022-09-06T12:41:41.738Z,9.711556
2022-09-06T12:42:39.598Z,9.711679
2022-09-06T12:43:38.355Z,9.711674
2022-09-06T12:44:37.534Z,9.711653
2022-09-06T12:45:37.628Z,9.711738
2022-09-06T12:46:37.665Z,9.711733
2022-09-06T12:47:37.517Z,9.711502